Time;durP1;ratioP1;P1;durP2;ratioP2;P2;SDS_P1;SDS_P2;PMS_P1;PMS_P2;Temp;Humidity;BMP_temperature;BMP_pressure;BME280_temperature;BME280_humidity;BME280_pressure;Samples;Min_cycle;Max_cycle;Signal;HPM_P1;HPM_P2
2021/11/03 00:01:32;;;;;;;17.63;10.50;;;12.50;89.10;;;;;;5029372;28;20037;-81
2021/11/03 00:04:00;;;;;;;17.48;9.02;;;12.50;89.20;;;;;;5028269;28;20046;-81
2021/11/03 00:06:27;;;;;;;17.95;10.40;;;12.50;89.20;;;;;;5031289;28;20045;-81
2021/11/03 00:08:53;;;;;;;18.17;10.40;;;12.50;89.30;;;;;;5029186;28;20049;-82
2021/11/03 00:11:19;;;;;;;24.92;10.80;;;12.50;89.40;;;;;;5024244;28;20422;-81
2021/11/03 00:13:45;;;;;;;15.68;9.23;;;12.50;89.40;;;;;;5025642;28;20030;-81
2021/11/03 00:16:11;;;;;;;21.35;10.32;;;12.50;89.40;;;;;;5026638;28;20389;-81
2021/11/03 00:18:37;;;;;;;16.33;9.48;;;12.50;89.40;;;;;;5023222;28;20030;-81
2021/11/03 00:21:05;;;;;;;16.88;10.27;;;12.50;89.40;;;;;;5017514;28;20482;-81
2021/11/03 00:23:31;;;;;;;20.48;10.50;;;12.50;89.50;;;;;;5029141;28;20026;-81
2021/11/03 00:25:59;;;;;;;15.93;9.70;;;12.50;89.60;;;;;;5030364;28;20543;-81
2021/11/03 00:28:25;;;;;;;16.02;9.60;;;12.50;89.60;;;;;;5022741;28;20097;-81
2021/11/03 00:30:54;;;;;;;18.40;11.10;;;12.40;89.50;;;;;;5032133;28;20128;-81
2021/11/03 00:33:21;;;;;;;18.80;10.82;;;12.40;89.50;;;;;;5030781;28;20489;-81
2021/11/03 00:35:47;;;;;;;20.00;10.13;;;12.40;89.50;;;;;;5015826;28;20389;-81
2021/11/03 00:38:12;;;;;;;17.27;10.38;;;12.40;89.60;;;;;;5017826;28;20101;-81
2021/11/03 00:40:41;;;;;;;14.27;9.23;;;12.40;89.60;;;;;;5024082;28;20033;-81
2021/11/03 00:43:08;;;;;;;23.52;8.73;;;12.40;89.60;;;;;;5048934;28;20028;-81
2021/11/03 00:45:34;;;;;;;21.20;10.48;;;12.40;89.50;;;;;;5032909;28;20037;-81
2021/11/03 00:48:00;;;;;;;17.10;9.70;;;12.40;89.50;;;;;;5031586;28;20071;-81
2021/11/03 00:50:29;;;;;;;16.65;10.30;;;12.30;89.40;;;;;;5026685;28;20481;-81
2021/11/03 00:52:55;;;;;;;17.20;9.75;;;12.30;90.00;;;;;;5022767;28;20025;-81
2021/11/03 00:55:21;;;;;;;17.30;9.45;;;12.30;89.50;;;;;;5030136;28;20092;-81
2021/11/03 00:57:46;;;;;;;15.90;8.93;;;12.30;89.60;;;;;;5021417;28;20378;-81
2021/11/03 01:00:15;;;;;;;16.13;8.90;;;12.30;89.50;;;;;;5032384;28;20034;-81
2021/11/03 01:02:41;;;;;;;16.90;10.00;;;12.30;89.40;;;;;;5031574;28;20026;-80
2021/11/03 01:05:10;;;;;;;19.70;9.35;;;12.30;89.40;;;;;;5034690;28;20037;-81
2021/11/03 01:07:36;;;;;;;16.08;8.45;;;12.30;89.50;;;;;;5032111;28;20032;-81
2021/11/03 01:10:05;;;;;;;15.75;8.63;;;12.30;89.50;;;;;;5033136;28;20025;-81
2021/11/03 01:12:31;;;;;;;14.43;7.82;;;12.20;89.60;;;;;;5029631;28;20025;-81
2021/11/03 01:14:57;;;;;;;15.10;7.78;;;12.20;89.60;;;;;;5033513;28;20029;-81
2021/11/03 01:17:26;;;;;;;13.75;8.57;;;12.10;89.60;;;;;;5033862;28;20029;-80
2021/11/03 01:19:52;;;;;;;12.30;6.70;;;12.10;89.60;;;;;;5027463;28;20026;-80
2021/11/03 01:22:18;;;;;;;13.13;6.43;;;12.00;89.70;;;;;;5025019;28;20044;-80
2021/11/03 01:24:44;;;;;;;16.67;7.93;;;12.00;89.80;;;;;;5030176;28;20029;-80
2021/11/03 01:27:10;;;;;;;9.18;4.43;;;12.00;89.80;;;;;;5032284;28;20826;-80
2021/11/03 01:29:36;;;;;;;11.40;6.50;;;12.00;89.90;;;;;;5032019;28;20029;-81
2021/11/03 01:32:02;;;;;;;11.93;5.88;;;11.90;89.90;;;;;;5026142;28;20034;-80
2021/11/03 01:34:28;;;;;;;8.68;4.78;;;11.90;90.00;;;;;;5014861;28;20037;-81
2021/11/03 01:36:54;;;;;;;6.45;3.45;;;11.90;90.00;;;;;;5016031;28;20029;-81
2021/11/03 01:39:20;;;;;;;4.22;2.53;;;11.90;90.00;;;;;;5021919;28;20029;-80
2021/11/03 01:41:46;;;;;;;10.88;5.80;;;11.80;90.10;;;;;;5027826;28;20036;-80
2021/11/03 01:44:14;;;;;;;12.43;5.43;;;11.80;90.10;;;;;;5035072;28;20037;-82
2021/11/03 01:46:53;;;;;;;7.00;4.35;;;11.70;90.10;;;;;;5031191;28;20083;-80
2021/11/03 01:49:28;;;;;;;12.60;5.55;;;11.80;90.20;;;;;;5030031;28;20032;-77
2021/11/03 01:52:07;;;;;;;12.43;7.10;;;11.80;90.20;;;;;;5014722;28;20034;-81
2021/11/03 01:54:40;;;;;;;12.65;7.47;;;11.70;90.20;;;;;;5025999;28;20521;-82
2021/11/03 01:57:10;;;;;;;13.82;7.07;;;11.70;90.20;;;;;;5028629;28;20075;-82
2021/11/03 01:59:47;;;;;;;11.20;6.78;;;11.80;90.20;;;;;;5020195;28;20501;-82
2021/11/03 02:02:17;;;;;;;10.70;6.18;;;11.80;90.20;;;;;;5028385;28;20075;-82
2021/11/03 02:04:44;;;;;;;12.50;7.80;;;11.80;90.10;;;;;;5026866;28;20096;-82
2021/11/03 02:07:15;;;;;;;13.10;7.50;;;11.80;90.10;;;;;;5029539;28;20068;-82
2021/11/03 02:09:43;;;;;;;14.18;7.85;;;11.80;90.10;;;;;;5043070;28;20109;-81
2021/11/03 02:12:17;;;;;;;11.88;8.10;;;11.90;90.10;;;;;;5028615;28;20030;-82
2021/11/03 02:14:43;;;;;;;13.90;7.70;;;11.90;90.10;;;;;;5030993;28;20025;-81
2021/11/03 02:17:10;;;;;;;11.88;7.10;;;12.00;90.00;;;;;;5029865;28;20030;-81
2021/11/03 02:19:36;;;;;;;14.38;7.30;;;12.00;90.00;;;;;;5030143;28;20025;-81
2021/11/03 02:22:53;;;;;;;11.07;6.97;;;12.10;90.00;;;;;;5029476;28;20033;-81
2021/11/03 02:25:26;;;;;;;12.38;6.90;;;12.10;90.00;;;;;;4997495;28;20046;-81
2021/11/03 02:27:56;;;;;;;13.45;6.63;;;12.10;89.80;;;;;;5030395;28;20052;-81
2021/11/03 02:30:24;;;;;;;13.20;7.47;;;12.20;89.90;;;;;;5020135;28;20076;-81
2021/11/03 02:33:00;;;;;;;17.23;6.80;;;12.20;89.80;;;;;;5024329;28;20025;-81
2021/11/03 02:35:27;;;;;;;12.05;6.85;;;12.20;89.80;;;;;;5022619;28;20076;-80
2021/11/03 02:37:56;;;;;;;12.27;7.25;;;12.20;89.70;;;;;;5042195;28;20087;-81
2021/11/03 02:40:26;;;;;;;10.82;7.07;;;12.20;89.60;;;;;;5024907;28;20017;-82
2021/11/03 02:42:57;;;;;;;12.23;6.97;;;12.30;89.70;;;;;;5033946;28;20053;-82
2021/11/03 02:45:33;;;;;;;13.45;6.63;;;12.20;89.60;;;;;;5046391;28;20029;-80
2021/11/03 02:47:59;;;;;;;13.75;7.28;;;12.20;89.40;;;;;;5028230;28;20033;-81
2021/11/03 02:50:25;;;;;;;10.90;6.30;;;12.20;89.40;;;;;;5030671;28;20435;-81
2021/11/03 02:52:53;;;;;;;13.73;7.22;;;12.30;89.40;;;;;;5028989;28;20095;-80
2021/11/03 02:55:19;;;;;;;11.48;6.53;;;12.20;89.30;;;;;;5013553;28;20489;-81
2021/11/03 02:57:45;;;;;;;10.98;6.53;;;12.20;89.20;;;;;;5023307;28;20026;-80
2021/11/03 03:00:15;;;;;;;12.73;7.00;;;12.20;89.20;;;;;;5028972;28;20476;-80
2021/11/03 03:02:41;;;;;;;10.25;5.97;;;12.20;89.00;;;;;;5029889;28;20392;-81
2021/11/03 03:05:08;;;;;;;12.82;7.30;;;12.20;89.00;;;;;;5025632;28;20037;-80
2021/11/03 03:07:35;;;;;;;13.10;6.68;;;12.20;89.10;;;;;;5024729;28;20081;-81
2021/11/03 03:10:01;;;;;;;11.98;6.13;;;12.20;89.10;;;;;;5020914;28;20021;-82
2021/11/03 03:12:30;;;;;;;12.77;6.82;;;12.20;89.10;;;;;;5026402;28;20482;-81
2021/11/03 03:14:57;;;;;;;10.48;5.75;;;12.10;89.10;;;;;;5014620;28;20030;-81
2021/11/03 03:17:23;;;;;;;9.63;5.30;;;12.10;89.10;;;;;;5028153;28;20032;-82
2021/11/03 03:19:49;;;;;;;11.07;6.00;;;12.10;89.10;;;;;;5043999;28;20037;-81
2021/11/03 03:22:17;;;;;;;10.48;5.65;;;12.10;89.20;;;;;;5017166;28;20021;-81
2021/11/03 03:24:46;;;;;;;11.60;5.80;;;12.20;89.30;;;;;;5045965;28;20026;-81
2021/11/03 03:27:12;;;;;;;11.85;5.80;;;12.10;89.20;;;;;;5044468;28;20511;-81
2021/11/03 03:29:39;;;;;;;9.63;5.45;;;12.10;89.20;;;;;;5031541;28;20109;-82
2021/11/03 03:32:06;;;;;;;9.70;5.53;;;12.10;89.10;;;;;;5011137;28;20061;-81
2021/11/03 03:34:33;;;;;;;7.95;4.90;;;12.10;89.10;;;;;;5019184;28;20025;-81
2021/11/03 03:36:59;;;;;;;8.50;4.68;;;12.10;88.90;;;;;;5028611;28;20033;-81
2021/11/03 03:39:28;;;;;;;8.68;4.60;;;12.10;88.90;;;;;;5017633;28;20032;-81
2021/11/03 03:41:59;;;;;;;6.80;4.20;;;12.10;88.90;;;;;;5030098;28;20079;-81
2021/11/03 03:44:25;;;;;;;7.38;4.00;;;12.00;88.90;;;;;;5026399;28;20084;-81
2021/11/03 03:46:53;;;;;;;8.55;4.38;;;12.00;89.00;;;;;;5030308;28;20060;-81
2021/11/03 03:49:20;;;;;;;11.98;4.15;;;12.00;89.00;;;;;;5027080;28;20018;-81
2021/11/03 03:51:46;;;;;;;5.80;3.40;;;12.00;89.00;;;;;;5021238;28;20030;-81
2021/11/03 03:54:14;;;;;;;8.57;4.00;;;12.00;89.00;;;;;;5016124;28;20125;-81
2021/11/03 03:56:39;;;;;;;7.43;3.65;;;11.90;88.90;;;;;;5028937;28;20112;-81
2021/11/03 03:59:05;;;;;;;6.45;3.72;;;11.90;89.00;;;;;;5029047;28;20424;-81
2021/11/03 04:01:31;;;;;;;10.07;4.53;;;11.90;89.00;;;;;;5017600;28;20044;-81
2021/11/03 04:04:01;;;;;;;6.13;3.60;;;11.90;89.40;;;;;;5026083;28;20042;-81
2021/11/03 04:06:27;;;;;;;6.50;4.13;;;11.90;89.10;;;;;;5026738;28;20037;-81
2021/11/03 04:08:55;;;;;;;7.18;3.88;;;11.90;89.10;;;;;;5033342;28;20026;-81
2021/11/03 04:11:22;;;;;;;5.75;3.53;;;11.90;89.10;;;;;;5024269;28;20484;-81
2021/11/03 04:13:48;;;;;;;7.53;3.88;;;11.90;89.10;;;;;;5028701;28;20033;-83
2021/11/03 04:16:17;;;;;;;5.88;3.85;;;11.80;89.10;;;;;;5029295;28;20040;-82
2021/11/03 04:18:43;;;;;;;5.65;3.17;;;11.90;89.20;;;;;;5029377;28;20433;-82
2021/11/03 04:21:09;;;;;;;8.18;3.28;;;11.90;89.10;;;;;;5050116;28;20036;-83
2021/11/03 04:23:36;;;;;;;6.88;3.88;;;11.80;89.00;;;;;;5019732;28;20017;-81
2021/11/03 04:26:03;;;;;;;4.70;3.15;;;11.90;89.10;;;;;;5032057;28;20495;-82
2021/11/03 04:28:31;;;;;;;6.28;3.80;;;11.80;89.10;;;;;;5020658;28;20393;-81
2021/11/03 04:30:58;;;;;;;5.70;3.80;;;11.80;89.10;;;;;;5019273;28;20021;-82
2021/11/03 04:33:23;;;;;;;7.05;4.15;;;11.80;89.20;;;;;;5032566;28;20026;-81
2021/11/03 04:35:49;;;;;;;5.80;3.03;;;11.80;89.30;;;;;;5033233;28;20392;-81
2021/11/03 04:38:16;;;;;;;5.10;3.05;;;11.80;89.30;;;;;;5033015;28;20411;-82
2021/11/03 04:40:42;;;;;;;9.18;3.30;;;11.70;89.20;;;;;;5032815;28;20074;-82
2021/11/03 04:43:08;;;;;;;4.88;3.13;;;11.80;89.30;;;;;;5033150;28;20026;-81
2021/11/03 04:45:34;;;;;;;9.32;3.42;;;11.80;89.30;;;;;;5030238;28;20041;-82
2021/11/03 04:48:00;;;;;;;5.40;3.50;;;11.80;89.20;;;;;;5020567;28;20036;-82
2021/11/03 04:50:29;;;;;;;6.75;3.10;;;11.80;89.20;;;;;;5032690;28;20477;-82
2021/11/03 04:52:57;;;;;;;8.65;3.15;;;11.80;89.80;;;;;;5031309;28;20049;-82
2021/11/03 04:55:24;;;;;;;6.22;3.45;;;11.70;89.10;;;;;;5030256;28;20025;-82
2021/11/03 04:57:51;;;;;;;6.10;3.30;;;11.70;89.20;;;;;;5028663;28;20037;-83
2021/11/03 05:00:22;;;;;;;6.28;3.53;;;11.70;89.20;;;;;;5032413;28;20496;-81
2021/11/03 05:02:49;;;;;;;4.30;2.78;;;11.70;89.30;;;;;;5024259;28;21335;-81
2021/11/03 05:05:15;;;;;;;4.53;3.13;;;11.70;89.30;;;;;;5024038;28;20468;-82
2021/11/03 05:07:41;;;;;;;7.63;2.90;;;11.60;89.30;;;;;;5018478;28;20041;-81
2021/11/03 05:10:08;;;;;;;4.68;2.80;;;11.60;89.30;;;;;;5032648;28;20033;-82
2021/11/03 05:12:34;;;;;;;3.88;1.92;;;11.60;89.30;;;;;;5026315;28;20040;-81
2021/11/03 05:15:03;;;;;;;4.47;2.75;;;11.60;89.40;;;;;;5030651;28;20021;-81
2021/11/03 05:17:28;;;;;;;5.18;3.13;;;11.50;90.00;;;;;;5036920;28;20057;-81
2021/11/03 05:19:55;;;;;;;5.22;2.47;;;11.50;89.50;;;;;;5027870;28;20029;-81
2021/11/03 05:22:27;;;;;;;7.65;2.47;;;11.50;89.60;;;;;;5028421;28;20033;-81
2021/11/03 05:24:57;;;;;;;3.40;2.00;;;11.40;89.50;;;;;;5031299;28;20045;-81
2021/11/03 05:27:24;;;;;;;5.07;2.05;;;11.40;89.60;;;;;;5027986;28;20038;-82
2021/11/03 05:29:50;;;;;;;5.13;2.60;;;11.40;89.70;;;;;;5023679;28;20511;-79
2021/11/03 05:32:19;;;;;;;5.47;3.28;;;11.30;89.70;;;;;;5032155;28;20029;-80
2021/11/03 05:34:45;;;;;;;4.10;2.58;;;11.40;89.70;;;;;;5033993;28;20493;-80
2021/11/03 05:37:15;;;;;;;3.38;2.40;;;11.30;89.70;;;;;;5019080;28;20042;-80
2021/11/03 05:39:41;;;;;;;5.10;2.88;;;11.30;89.70;;;;;;5021132;28;20021;-83
2021/11/03 05:42:07;;;;;;;5.57;2.28;;;11.30;89.70;;;;;;5032581;28;20080;-81
2021/11/03 05:44:33;;;;;;;4.32;2.50;;;11.30;89.70;;;;;;5030725;28;20025;-80
2021/11/03 05:46:59;;;;;;;4.57;2.70;;;11.20;89.60;;;;;;5030557;28;20045;-75
2021/11/03 05:49:29;;;;;;;4.90;2.20;;;11.20;89.60;;;;;;5018690;28;20021;-76
2021/11/03 05:51:56;;;;;;;3.30;2.30;;;11.30;89.70;;;;;;5025528;28;20120;-78
2021/11/03 05:54:26;;;;;;;3.70;2.10;;;11.20;89.70;;;;;;5024458;28;20021;-76
2021/11/03 05:56:53;;;;;;;4.32;2.40;;;11.20;89.70;;;;;;5021759;28;20056;-77
2021/11/03 05:59:19;;;;;;;4.28;2.88;;;11.20;89.80;;;;;;5032767;28;20040;-81
2021/11/03 06:01:45;;;;;;;4.13;2.60;;;11.20;89.70;;;;;;5030641;28;20033;-78
2021/11/03 06:04:10;;;;;;;5.72;2.90;;;11.20;89.70;;;;;;5031210;28;20049;-78
2021/11/03 06:06:37;;;;;;;4.80;2.55;;;11.20;89.70;;;;;;5030324;28;20038;-78
2021/11/03 06:09:04;;;;;;;5.32;3.30;;;11.10;89.50;;;;;;5026596;28;20025;-79
2021/11/03 06:11:31;;;;;;;6.05;2.72;;;11.20;89.50;;;;;;5025005;28;20034;-78
2021/11/03 06:13:57;;;;;;;5.65;3.25;;;11.20;89.50;;;;;;5027722;28;20025;-77
2021/11/03 06:16:24;;;;;;;5.75;3.30;;;11.20;89.40;;;;;;5026037;28;20032;-77
2021/11/03 06:18:51;;;;;;;4.07;2.65;;;11.20;89.40;;;;;;5027344;28;20041;-78
2021/11/03 06:21:18;;;;;;;9.05;3.47;;;11.20;89.30;;;;;;5022666;28;20021;-77
2021/11/03 06:23:44;;;;;;;6.75;3.30;;;11.20;89.20;;;;;;5017921;28;20030;-77
2021/11/03 06:26:13;;;;;;;4.30;2.97;;;11.20;89.10;;;;;;5028707;28;20183;-78
2021/11/03 06:28:38;;;;;;;5.72;3.63;;;11.20;89.10;;;;;;5025949;28;20030;-78
2021/11/03 06:31:05;;;;;;;5.32;3.30;;;11.20;88.90;;;;;;5025183;28;20033;-77
2021/11/03 06:33:30;;;;;;;6.15;3.33;;;11.20;88.80;;;;;;5022934;28;20036;-78
2021/11/03 06:35:57;;;;;;;7.63;3.50;;;11.20;88.80;;;;;;5024233;28;20042;-77
2021/11/03 06:38:22;;;;;;;9.45;3.88;;;11.20;88.70;;;;;;5024032;28;20030;-77
2021/11/03 06:40:48;;;;;;;5.05;3.30;;;11.30;88.70;;;;;;5026483;28;20040;-70
2021/11/03 06:43:14;;;;;;;5.97;3.95;;;11.30;88.60;;;;;;5024518;28;20118;-77
2021/11/03 06:45:41;;;;;;;7.55;4.10;;;11.30;88.40;;;;;;5018367;28;20041;-75
2021/11/03 06:48:12;;;;;;;5.05;3.35;;;11.20;88.30;;;;;;5025624;28;20034;-74
2021/11/03 06:50:39;;;;;;;5.90;3.60;;;11.20;88.20;;;;;;5031415;28;20026;-78
2021/11/03 06:53:08;;;;;;;4.55;3.00;;;11.30;88.20;;;;;;5025848;28;20033;-76
2021/11/03 06:55:38;;;;;;;8.00;3.80;;;11.20;88.10;;;;;;5027845;28;20405;-77
2021/11/03 06:58:04;;;;;;;5.68;3.80;;;11.30;88.10;;;;;;5026090;28;20393;-76
2021/11/03 07:00:34;;;;;;;6.85;4.25;;;11.20;88.00;;;;;;5026215;28;20036;-77
2021/11/03 07:03:00;;;;;;;5.88;4.32;;;11.20;88.10;;;;;;5029658;28;20053;-76
2021/11/03 07:05:28;;;;;;;8.07;4.63;;;11.20;88.10;;;;;;5025536;28;20049;-76
2021/11/03 07:07:53;;;;;;;8.32;4.80;;;11.10;88.10;;;;;;5021637;28;20489;-76
2021/11/03 07:10:24;;;;;;;8.23;4.60;;;11.10;88.10;;;;;;5025390;28;20029;-76
2021/11/03 07:12:50;;;;;;;7.80;5.20;;;11.10;88.00;;;;;;5024324;28;20038;-82
2021/11/03 07:15:18;;;;;;;9.32;5.63;;;11.10;88.00;;;;;;5028207;28;20029;-77
2021/11/03 07:17:45;;;;;;;9.10;5.40;;;11.10;88.10;;;;;;5031000;28;20432;-66
2021/11/03 07:20:11;;;;;;;11.70;5.47;;;11.10;88.00;;;;;;5028464;28;20093;-75
2021/11/03 07:22:37;;;;;;;10.77;5.47;;;11.10;88.00;;;;;;5017764;28;20473;-77
2021/11/03 07:25:04;;;;;;;9.73;6.03;;;11.10;88.00;;;;;;5026487;28;20116;-77
2021/11/03 07:27:30;;;;;;;10.10;5.53;;;11.10;88.00;;;;;;5025180;28;20569;-78
2021/11/03 07:29:55;;;;;;;10.05;6.25;;;11.10;88.00;;;;;;5024522;28;20048;-76
2021/11/03 07:32:21;;;;;;;10.95;6.13;;;11.10;88.00;;;;;;5024074;28;20025;-76
2021/11/03 07:34:49;;;;;;;9.55;6.07;;;11.10;87.90;;;;;;5024215;28;20024;-76
2021/11/03 07:37:15;;;;;;;9.30;5.72;;;11.10;87.80;;;;;;5018296;28;20037;-77
2021/11/03 07:39:41;;;;;;;10.00;5.30;;;11.10;87.90;;;;;;5028235;28;20029;-79
2021/11/03 07:42:07;;;;;;;10.02;6.10;;;11.10;87.90;;;;;;5031616;28;20033;-78
2021/11/03 07:44:37;;;;;;;10.98;6.57;;;11.10;87.90;;;;;;5025094;28;20048;-76
2021/11/03 07:47:03;;;;;;;9.75;6.10;;;11.10;88.00;;;;;;5027266;28;20466;-77
2021/11/03 07:49:29;;;;;;;12.48;6.32;;;11.10;87.90;;;;;;5025753;28;20112;-77
2021/11/03 07:51:55;;;;;;;10.13;5.43;;;11.10;87.90;;;;;;5030563;28;20033;-77
2021/11/03 07:54:21;;;;;;;9.93;6.78;;;11.10;87.90;;;;;;5026834;28;20033;-77
2021/11/03 07:56:47;;;;;;;13.57;6.57;;;11.00;87.90;;;;;;5019471;28;20030;-77
2021/11/03 07:59:15;;;;;;;14.93;6.95;;;11.10;88.00;;;;;;5020100;28;20539;-77
2021/11/03 08:01:41;;;;;;;10.57;6.28;;;11.00;88.60;;;;;;5026795;28;20061;-77
2021/11/03 08:04:06;;;;;;;12.73;6.40;;;11.00;88.00;;;;;;5027626;28;20045;-77
2021/11/03 08:06:34;;;;;;;13.18;7.22;;;11.10;87.90;;;;;;5029312;28;20041;-77
2021/11/03 08:09:04;;;;;;;22.70;7.80;;;11.00;87.90;;;;;;5025300;28;20033;-77
2021/11/03 08:11:45;;;;;;;11.52;7.10;;;11.10;87.90;;;;;;5022002;28;20029;-77
2021/11/03 08:14:11;;;;;;;13.70;8.63;;;11.00;87.90;;;;;;5021195;28;20432;-77
2021/11/03 08:17:00;;;;;;;11.57;7.05;;;11.00;87.90;;;;;;5028471;28;20067;-78
2021/11/03 08:19:34;;;;;;;11.80;6.55;;;11.00;87.90;;;;;;5025239;28;20091;-77
2021/11/03 08:22:00;;;;;;;14.13;7.43;;;11.00;88.00;;;;;;5023932;28;20032;-77
2021/11/03 08:24:26;;;;;;;13.32;7.07;;;10.90;87.90;;;;;;5024142;28;20034;-78
2021/11/03 08:26:53;;;;;;;13.77;8.23;;;10.90;88.00;;;;;;5021347;28;20025;-78
2021/11/03 08:29:20;;;;;;;11.27;7.18;;;11.00;88.10;;;;;;5017118;28;20045;-78
2021/11/03 08:31:46;;;;;;;11.60;6.93;;;10.90;88.10;;;;;;5026775;28;20033;-78
2021/11/03 08:34:13;;;;;;;10.05;5.90;;;10.90;88.10;;;;;;5023246;28;20354;-75
2021/11/03 08:36:39;;;;;;;10.32;4.90;;;10.90;88.10;;;;;;5024152;28;20039;-77
2021/11/03 08:39:06;;;;;;;13.68;8.05;;;10.90;88.20;;;;;;5028929;28;20033;-74
2021/11/03 08:41:32;;;;;;;14.10;8.25;;;10.90;88.90;;;;;;5029101;28;20029;-79
2021/11/03 08:43:58;;;;;;;9.65;5.53;;;10.80;88.40;;;;;;5030601;28;20028;-86
2021/11/03 08:46:23;;;;;;;5.53;3.53;;;10.80;88.40;;;;;;5018492;28;20046;-73
2021/11/03 08:48:56;;;;;;;16.23;9.40;;;10.80;88.50;;;;;;5031719;28;20056;-77
2021/11/03 08:51:22;;;;;;;32.28;8.55;;;10.80;88.50;;;;;;5030810;28;20033;-77
2021/11/03 08:53:48;;;;;;;23.17;7.68;;;10.80;88.60;;;;;;5034765;28;20040;-77
2021/11/03 08:56:15;;;;;;;14.43;6.82;;;10.90;88.60;;;;;;5032208;28;20029;-77
2021/11/03 08:58:41;;;;;;;32.42;9.32;;;10.80;88.50;;;;;;5035096;28;20026;-78
2021/11/03 09:01:07;;;;;;;19.33;7.43;;;10.80;88.60;;;;;;5029124;28;20026;-77
2021/11/03 09:03:34;;;;;;;41.08;7.47;;;10.80;88.60;;;;;;5032360;28;20115;-78
2021/11/03 09:06:03;;;;;;;68.75;9.02;;;10.80;88.60;;;;;;5033649;28;20129;-79
2021/11/03 09:08:29;;;;;;;30.58;8.18;;;10.80;88.60;;;;;;5030114;28;20052;-79
2021/11/03 09:11:00;;;;;;;17.80;5.32;;;10.80;88.60;;;;;;5034910;28;20465;-77
2021/11/03 09:13:27;;;;;;;27.25;6.15;;;10.80;88.60;;;;;;5031767;28;20727;-78
2021/11/03 09:15:53;;;;;;;50.97;8.90;;;10.80;88.60;;;;;;5030350;28;20057;-80
2021/11/03 09:18:20;;;;;;;39.90;10.38;;;10.80;88.80;;;;;;5031922;28;20072;-81
2021/11/03 09:20:48;;;;;;;44.25;5.57;;;10.80;88.80;;;;;;5033492;28;20037;-78
2021/11/03 09:23:15;;;;;;;44.05;7.18;;;10.80;88.70;;;;;;5024284;28;20034;-81
2021/11/03 09:25:41;;;;;;;29.98;7.65;;;10.80;88.80;;;;;;5027912;28;21211;-82
2021/11/03 09:28:08;;;;;;;69.85;8.43;;;10.80;88.70;;;;;;5033667;28;20040;-79
2021/11/03 09:30:34;;;;;;;65.70;9.07;;;10.80;88.70;;;;;;5032011;28;20025;-78
2021/11/03 09:33:03;;;;;;;31.67;5.63;;;10.80;88.70;;;;;;5031911;28;20033;-78
2021/11/03 09:35:33;;;;;;;65.78;9.73;;;10.90;88.80;;;;;;5031394;28;20036;-80
2021/11/03 09:37:59;;;;;;;34.00;9.95;;;10.80;88.80;;;;;;5030029;28;20065;-81
2021/11/03 09:40:56;;;;;;;18.20;5.72;;;10.90;88.90;;;;;;5033505;28;20115;-80
2021/11/03 09:43:53;;;;;;;50.70;8.45;;;10.80;88.80;;;;;;5023891;28;20025;-81
2021/11/03 09:46:24;;;;;;;56.10;7.47;;;10.80;88.80;;;;;;5026204;28;20065;-81
2021/11/03 09:49:14;;;;;;;48.70;8.95;;;10.80;88.80;;;;;;5026384;28;20029;-81
2021/11/03 09:51:45;;;;;;;46.22;8.48;;;10.80;88.90;;;;;;5019438;28;20033;-77
2021/11/03 09:54:18;;;;;;;77.82;9.85;;;10.80;89.00;;;;;;5020401;28;20026;-76
2021/11/03 09:56:54;;;;;;;10.02;1.88;;;10.80;89.10;;;;;;5032549;28;20113;-76
2021/11/03 09:59:46;;;;;;;28.90;8.60;;;10.80;89.00;;;;;;5030565;28;20108;-76
2021/11/03 10:02:49;;;;;;;41.80;9.07;;;10.80;89.10;;;;;;5026777;28;20579;-78
2021/11/03 10:05:42;;;;;;;30.65;9.50;;;10.80;89.10;;;;;;5030525;28;20044;-76
2021/11/03 10:08:17;;;;;;;40.13;8.73;;;10.80;89.20;;;;;;5017669;28;20052;-81
2021/11/03 10:10:54;;;;;;;23.42;9.15;;;10.80;89.20;;;;;;5023677;28;20033;-77
2021/11/03 10:13:24;;;;;;;54.50;10.63;;;10.80;89.40;;;;;;5029678;28;20405;-79
2021/11/03 10:15:55;;;;;;;19.80;7.50;;;10.80;89.40;;;;;;5027273;28;20026;-78
2021/11/03 10:18:23;;;;;;;42.85;10.52;;;10.80;89.40;;;;;;5026697;28;20088;-81
2021/11/03 10:21:26;;;;;;;55.75;9.55;;;10.80;89.50;;;;;;5030572;28;20030;-80
2021/11/03 10:23:56;;;;;;;22.92;9.65;;;10.90;89.40;;;;;;5017909;28;20029;-81
2021/11/03 10:26:29;;;;;;;17.67;5.72;;;10.90;89.40;;;;;;5030934;28;20037;-80
2021/11/03 10:29:13;;;;;;;33.17;9.43;;;10.90;89.30;;;;;;5028068;28;20030;-89
2021/11/03 10:31:44;;;;;;;;;;;10.90;89.30;;;;;;5032092;28;20068;-80
2021/11/03 10:34:24;;;;;;;7.20;4.13;;;11.00;89.20;;;;;;5030250;28;19913;-80
2021/11/03 10:37:16;;;;;;;17.85;8.10;;;10.90;89.10;;;;;;5020101;28;20421;-80
2021/11/03 10:39:55;;;;;;;6.53;4.10;;;11.00;89.30;;;;;;5030667;28;20075;-78
2021/11/03 10:42:42;;;;;;;17.55;7.68;;;10.90;89.30;;;;;;5027911;28;20044;-80
2021/11/03 10:45:29;;;;;;;26.08;9.68;;;10.90;89.40;;;;;;5022835;28;20037;-81
2021/11/03 10:48:23;;;;;;;13.43;6.60;;;10.90;89.60;;;;;;5024233;28;20033;-80
2021/11/03 10:50:55;;;;;;;21.48;9.80;;;10.80;89.70;;;;;;5015484;28;20037;-80
2021/11/03 10:53:28;;;;;;;16.45;8.80;;;10.80;89.70;;;;;;5028835;28;20025;-82
2021/11/03 10:56:13;;;;;;;19.83;9.98;;;10.80;89.90;;;;;;5021940;28;20029;-82
2021/11/03 10:58:50;;;;;;;16.08;8.95;;;10.80;90.00;;;;;;5021091;28;20037;-82
2021/11/03 11:01:22;;;;;;;18.42;9.40;;;10.80;90.00;;;;;;5029865;28;20462;-83
2021/11/03 11:04:13;;;;;;;19.98;10.77;;;10.80;90.00;;;;;;5030818;28;20049;-80
2021/11/03 11:07:17;;;;;;;19.90;8.70;;;10.90;90.00;;;;;;5030356;28;20068;-82
2021/11/03 11:09:54;;;;;;;21.98;12.18;;;10.90;90.00;;;;;;5005842;28;20354;-79
2021/11/03 11:12:42;;;;;;;21.15;9.98;;;10.80;90.00;;;;;;5026064;28;20389;-83
2021/11/03 11:15:14;;;;;;;17.00;8.75;;;10.90;90.10;;;;;;5029115;28;20096;-80
2021/11/03 11:18:05;;;;;;;20.70;8.70;;;10.90;90.00;;;;;;5019435;28;20037;-81
2021/11/03 11:20:44;;;;;;;15.05;6.65;;;10.90;90.10;;;;;;5030230;28;20072;-84
2021/11/03 11:23:11;;;;;;;20.40;11.20;;;10.90;90.00;;;;;;5021979;28;20033;-83
2021/11/03 11:26:01;;;;;;;22.48;10.63;;;11.00;90.10;;;;;;5015249;28;20049;-83
2021/11/03 11:28:51;;;;;;;16.23;8.88;;;11.00;90.10;;;;;;5032710;28;20069;-71
2021/11/03 11:31:48;;;;;;;9.43;4.72;;;11.00;90.00;;;;;;5030936;28;20477;-81
2021/11/03 11:34:30;;;;;;;18.05;9.68;;;11.00;90.00;;;;;;5028475;28;20500;-84
2021/11/03 11:37:18;;;;;;;25.95;11.27;;;11.10;90.00;;;;;;5027531;28;20112;-83
2021/11/03 11:40:09;;;;;;;18.85;11.50;;;11.10;90.10;;;;;;5027280;28;20036;-86
2021/11/03 11:42:45;;;;;;;19.75;10.43;;;11.10;90.00;;;;;;5025292;28;20048;-75
2021/11/03 11:45:18;;;;;;;17.92;10.18;;;11.20;90.00;;;;;;5022416;28;20022;-73
2021/11/03 11:47:48;;;;;;;18.58;9.85;;;11.20;90.00;;;;;;5030129;28;20050;-92
2021/11/03 11:50:44;;;;;;;17.20;10.27;;;11.30;90.00;;;;;;5034033;28;20209;-92
2021/11/03 11:53:33;;;;;;;16.55;9.50;;;11.30;89.90;;;;;;5030388;28;20141;-87
2021/11/03 11:56:08;;;;;;;12.25;6.75;;;11.30;89.70;;;;;;5030533;28;20045;-81
2021/11/03 11:58:38;;;;;;;16.77;7.95;;;11.40;89.80;;;;;;5029415;28;20032;-79
2021/11/03 12:01:12;;;;;;;12.60;6.05;;;11.30;89.70;;;;;;5021668;28;20041;-82
2021/11/03 12:04:12;;;;;;;16.17;8.73;;;11.40;89.70;;;;;;5020786;28;20417;-82
2021/11/03 12:06:45;;;;;;;11.52;6.88;;;11.30;89.70;;;;;;5024521;28;20053;-83
2021/11/03 12:09:19;;;;;;;14.27;7.82;;;11.30;89.80;;;;;;5022322;28;20028;-82
2021/11/03 12:11:54;;;;;;;19.15;9.70;;;11.30;90.00;;;;;;5026721;28;20059;-81
2021/11/03 12:14:37;;;;;;;13.27;7.32;;;11.30;90.20;;;;;;5027607;28;20030;-83
2021/11/03 12:17:09;;;;;;;17.73;8.13;;;11.30;90.00;;;;;;5021229;28;20481;-84
2021/11/03 12:19:42;;;;;;;18.23;9.35;;;11.30;90.00;;;;;;5025180;28;20025;-81
2021/11/03 12:22:10;;;;;;;19.20;9.73;;;11.30;90.00;;;;;;5022461;28;20037;-79
2021/11/03 12:24:42;;;;;;;21.15;10.18;;;11.40;90.10;;;;;;5032847;28;20075;-86
2021/11/03 12:27:29;;;;;;;16.77;9.52;;;11.40;90.10;;;;;;5030750;28;20110;-80
2021/11/03 12:30:09;;;;;;;21.83;11.52;;;11.40;90.10;;;;;;5031620;28;20098;-81
2021/11/03 12:32:44;;;;;;;16.23;8.98;;;11.40;90.20;;;;;;5030495;28;20030;-83
2021/11/03 12:35:18;;;;;;;21.20;11.02;;;11.40;90.10;;;;;;5031899;28;20039;-82
2021/11/03 12:38:04;;;;;;;17.60;8.40;;;11.50;90.10;;;;;;5030202;28;20473;-89
2021/11/03 12:40:35;;;;;;;14.82;9.20;;;11.50;90.10;;;;;;5021778;28;20045;-82
2021/11/03 12:43:17;;;;;;;17.77;10.90;;;11.50;90.10;;;;;;5027049;28;20108;-82
2021/11/03 12:46:07;;;;;;;16.10;9.40;;;11.50;90.10;;;;;;5022610;28;20164;-82
2021/11/03 12:48:50;;;;;;;16.20;8.48;;;11.60;90.20;;;;;;5023649;28;20052;-81
2021/11/03 12:51:33;;;;;;;17.73;9.50;;;11.70;90.00;;;;;;5025274;28;20575;-81
2021/11/03 12:54:06;;;;;;;18.02;10.95;;;11.70;90.00;;;;;;5033007;28;20469;-80
2021/11/03 12:56:38;;;;;;;19.10;10.90;;;11.80;90.10;;;;;;5028629;28;20033;-85
2021/11/03 12:59:20;;;;;;;17.70;10.10;;;11.80;90.10;;;;;;5029597;28;20033;-83